Time;durP1;ratioP1;P1;durP2;ratioP2;P2;SDS_P1;SDS_P2;PMS_P1;PMS_P2;Temp;Humidity;BMP_temperature;BMP_pressure;BME280_temperature;BME280_humidity;BME280_pressure;Samples;Min_cycle;Max_cycle;Signal;HPM_P1;HPM_P2
2023/04/20 00:01:48;;;;;;;9.15;5.95;;;11.30;99.90;;;11.32;41.61;102230.69;5052364;28;20048;-73
2023/04/20 00:04:17;;;;;;;7.28;5.60;;;11.30;99.90;;;11.47;41.32;102247.69;5052124;28;20041;-73
2023/04/20 00:06:46;;;;;;;7.45;6.20;;;11.30;99.90;;;11.44;41.37;102252.94;5052048;28;20553;-73
2023/04/20 00:09:14;;;;;;;7.30;5.72;;;11.20;99.90;;;11.21;41.12;102233.16;5052032;28;20048;-73
2023/04/20 00:11:43;;;;;;;7.45;6.00;;;11.10;99.90;;;11.27;41.40;102250.91;5067825;28;20440;-74
2023/04/20 00:14:12;;;;;;;7.00;5.60;;;11.00;99.90;;;11.21;41.31;102237.56;5052327;28;20098;-73
2023/04/20 00:16:40;;;;;;;8.75;5.90;;;11.00;99.90;;;11.30;41.71;102243.03;5052024;28;20049;-73
2023/04/20 00:19:10;;;;;;;8.45;5.88;;;11.00;99.90;;;11.35;41.39;102242.22;5055671;28;20049;-73
2023/04/20 00:21:38;;;;;;;8.15;5.93;;;11.10;99.90;;;11.36;41.09;102235.16;5055783;28;20425;-74
2023/04/20 00:24:07;;;;;;;6.32;5.43;;;11.20;99.90;;;11.35;41.47;102234.28;5055941;28;20037;-73
2023/04/20 00:26:36;;;;;;;9.82;5.70;;;11.10;99.90;;;11.30;41.32;102238.63;5055626;28;20045;-73
2023/04/20 00:29:04;;;;;;;6.65;5.95;;;11.10;99.90;;;11.33;41.48;102235.09;5071144;28;20139;-73
2023/04/20 00:31:32;;;;;;;6.90;6.25;;;11.00;99.90;;;11.22;41.26;102234.97;5054534;28;20053;-73
2023/04/20 00:34:01;;;;;;;10.68;6.40;;;11.10;99.90;;;11.32;41.69;102221.00;5055785;28;20041;-73
2023/04/20 00:36:30;;;;;;;8.55;6.32;;;11.10;99.90;;;11.29;41.47;102223.59;5054086;28;20106;-73
2023/04/20 00:38:59;;;;;;;9.38;6.45;;;11.10;99.90;;;11.32;41.31;102222.75;5055396;28;20043;-73
2023/04/20 00:41:29;;;;;;;11.43;5.85;;;11.10;99.90;;;11.31;41.34;102231.53;5055710;28;20032;-73
2023/04/20 00:43:59;;;;;;;9.63;6.28;;;11.10;99.90;;;11.36;41.38;102229.88;5053970;28;20119;-73
2023/04/20 00:46:28;;;;;;;7.03;6.07;;;11.10;99.90;;;11.34;41.43;102231.59;5055669;28;20037;-74
2023/04/20 00:48:57;;;;;;;10.27;6.07;;;11.10;99.90;;;11.34;41.50;102218.38;5054307;28;20482;-74
2023/04/20 00:51:30;;;;;;;13.35;6.30;;;11.10;99.90;;;11.28;41.70;102213.88;5054182;28;20135;-74
2023/04/20 00:54:00;;;;;;;7.40;6.10;;;11.10;99.90;;;11.27;41.82;102221.78;5055497;28;20053;-74
2023/04/20 00:56:28;;;;;;;6.60;5.90;;;11.00;99.90;;;11.33;42.12;102221.88;5054137;28;20053;-74
2023/04/20 00:58:56;;;;;;;8.85;5.93;;;11.10;99.90;;;11.30;42.01;102212.13;5055095;28;20512;-74
2023/04/20 01:01:26;;;;;;;9.43;6.03;;;11.10;99.90;;;11.13;42.11;102184.50;5087503;28;20478;-73
2023/04/20 01:03:54;;;;;;;6.88;5.43;;;11.10;99.90;;;11.33;42.21;102211.25;5053999;28;20045;-74
2023/04/20 01:06:23;;;;;;;5.70;5.15;;;11.10;99.90;;;11.23;41.81;102202.31;5055428;28;20045;-74
2023/04/20 01:08:55;;;;;;;;;;;11.10;99.90;;;11.20;41.96;102199.63;5055656;28;20082;-73
2023/04/20 01:11:23;;;;;;;9.57;6.03;;;11.10;99.90;;;11.30;41.83;102205.94;5054931;28;19924;-74
2023/04/20 01:13:51;;;;;;;10.25;5.68;;;11.10;99.90;;;11.32;41.81;102202.44;5054817;28;20143;-74
2023/04/20 01:16:20;;;;;;;9.52;5.65;;;11.10;99.90;;;11.34;41.74;102190.09;5054777;28;20127;-74
2023/04/20 01:18:51;;;;;;;8.20;5.60;;;11.10;99.90;;;11.32;42.16;102191.84;5054717;28;20048;-74
2023/04/20 01:21:21;;;;;;;6.40;5.80;;;11.10;99.90;;;11.30;41.98;102190.94;5054953;28;20040;-74
2023/04/20 01:23:51;;;;;;;9.25;5.80;;;11.10;99.90;;;11.40;42.04;102182.22;5053672;28;20143;-74
2023/04/20 01:26:21;;;;;;;9.30;5.60;;;11.20;99.90;;;11.36;41.24;102174.25;5054719;28;20431;-73
2023/04/20 01:28:51;;;;;;;7.82;5.47;;;11.20;99.90;;;11.36;41.67;102172.47;5070130;28;20292;-74
2023/04/20 01:31:20;;;;;;;7.43;5.60;;;11.10;99.90;;;11.43;41.50;102173.44;5054414;28;20049;-73
2023/04/20 01:33:51;;;;;;;7.72;5.82;;;11.10;99.90;;;11.38;41.59;102165.41;5070190;28;20102;-74
2023/04/20 01:36:21;;;;;;;9.82;5.60;;;11.20;99.90;;;11.48;41.47;102169.06;5054632;28;20085;-74
2023/04/20 01:38:51;;;;;;;9.60;5.65;;;11.20;99.90;;;11.47;41.87;102167.31;5054555;28;20147;-73
2023/04/20 01:41:21;;;;;;;7.75;6.78;;;11.20;99.90;;;11.52;41.92;102161.19;5053323;28;20486;-74
2023/04/20 01:43:50;;;;;;;7.53;5.85;;;11.20;99.90;;;11.53;41.90;102160.34;5054532;28;20052;-74
2023/04/20 01:46:18;;;;;;;6.78;6.07;;;11.20;99.90;;;11.51;42.25;102154.13;5053233;28;20470;-74
2023/04/20 01:48:47;;;;;;;7.00;5.78;;;11.20;99.90;;;11.35;42.82;102117.72;5054328;28;20033;-74
2023/04/20 01:51:15;;;;;;;6.32;5.65;;;11.20;99.90;;;11.58;42.98;102141.81;5054438;28;20060;-74
2023/04/20 01:53:44;;;;;;;9.20;6.28;;;11.30;99.90;;;11.57;43.39;102143.63;5053028;28;20394;-74
2023/04/20 01:56:14;;;;;;;9.65;5.80;;;11.30;99.90;;;11.55;43.46;102145.34;5054355;28;20119;-73
2023/04/20 01:58:42;;;;;;;7.25;5.85;;;11.20;99.90;;;11.53;43.81;102135.59;5052727;28;20072;-74
2023/04/20 02:01:11;;;;;;;8.32;6.35;;;11.20;99.90;;;11.55;44.47;102134.75;5052931;28;20129;-74
2023/04/20 02:03:39;;;;;;;8.55;6.05;;;11.20;99.90;;;11.59;44.52;102136.53;5069462;28;20040;-74
2023/04/20 02:06:08;;;;;;;9.63;6.32;;;11.20;99.90;;;11.60;44.94;102130.38;5054148;28;20119;-74
2023/04/20 02:08:37;;;;;;;7.68;5.65;;;11.30;99.90;;;11.54;44.93;102121.47;5053639;28;20501;-75
2023/04/20 02:11:08;;;;;;;8.45;6.03;;;11.30;99.90;;;11.53;45.99;102125.91;5069395;28;20088;-74
2023/04/20 02:13:38;;;;;;;10.23;6.40;;;11.20;99.90;;;11.57;45.87;102129.47;5053951;28;20099;-74
2023/04/20 02:16:07;;;;;;;9.47;6.33;;;11.30;99.90;;;11.62;45.64;102119.78;5053937;28;20135;-74
2023/04/20 02:18:36;;;;;;;8.05;6.50;;;11.30;99.90;;;10.77;46.42;102001.34;5069089;28;20295;-74
2023/04/20 02:21:05;;;;;;;7.72;6.45;;;11.20;99.90;;;10.92;46.61;101993.59;5069112;28;20465;-74
2023/04/20 02:23:34;;;;;;;9.93;6.00;;;11.30;99.90;;;11.66;47.08;102122.53;5053660;28;20079;-74
2023/04/20 02:26:02;;;;;;;7.20;6.45;;;11.40;99.90;;;11.69;47.33;102105.78;5053608;28;20279;-74
2023/04/20 02:28:31;;;;;;;6.90;5.97;;;11.40;99.90;;;11.68;47.39;102114.59;5052298;28;20049;-73
2023/04/20 02:31:00;;;;;;;7.68;6.38;;;11.40;99.90;;;11.68;47.29;102110.19;5053370;28;20037;-74
2023/04/20 02:33:29;;;;;;;10.00;6.97;;;11.40;99.90;;;11.60;48.06;102108.28;5053541;28;20406;-74
2023/04/20 02:35:57;;;;;;;11.52;6.60;;;11.30;99.90;;;11.55;48.18;102102.94;5052056;28;20061;-74
2023/04/20 02:38:26;;;;;;;9.48;6.65;;;11.30;99.90;;;11.57;48.60;102101.22;5053487;28;20049;-74
2023/04/20 02:40:54;;;;;;;10.95;6.85;;;11.30;99.90;;;11.55;49.09;102091.44;5052436;28;20044;-73
2023/04/20 02:43:22;;;;;;;8.25;6.75;;;11.30;99.90;;;11.56;49.13;102093.22;5052113;28;20083;-74
2023/04/20 02:45:51;;;;;;;12.20;7.10;;;11.30;99.90;;;11.61;49.58;102096.81;5053320;28;20051;-74
2023/04/20 02:48:23;;;;;;;7.97;7.15;;;11.30;99.90;;;11.59;49.73;102091.47;5051693;28;20079;-74
2023/04/20 02:50:55;;;;;;;13.88;7.18;;;11.30;99.90;;;11.57;50.16;102079.13;5052074;28;20533;-74
2023/04/20 02:53:25;;;;;;;8.70;6.72;;;11.30;99.90;;;11.54;50.32;102087.00;5052029;28;20094;-74
2023/04/20 02:56:08;;;;;;;10.23;6.88;;;11.20;99.90;;;11.52;51.25;102078.16;5085539;28;20551;-74
2023/04/20 02:58:44;;;;;;;8.85;6.70;;;11.20;99.90;;;11.57;50.90;102080.00;5051971;28;20076;-74
2023/04/20 03:01:22;;;;;;;11.40;7.13;;;11.30;99.90;;;11.47;51.49;102064.88;5051893;28;20106;-73
2023/04/20 03:03:59;;;;;;;8.18;7.15;;;11.20;99.90;;;11.49;51.77;102067.53;5051835;28;20049;-73
2023/04/20 03:06:29;;;;;;;11.60;7.78;;;11.20;99.90;;;11.48;52.34;102068.38;5051817;28;20071;-73
2023/04/20 03:08:57;;;;;;;10.00;7.18;;;11.20;99.90;;;11.48;52.29;102069.28;5053280;28;20068;-74
2023/04/20 03:11:45;;;;;;;11.88;7.60;;;11.20;99.90;;;11.53;53.14;102057.00;5052876;28;20056;-74
2023/04/20 03:14:25;;;;;;;11.52;7.13;;;11.20;99.90;;;11.30;52.95;102037.31;5051857;28;20052;-74
2023/04/20 03:16:54;;;;;;;7.70;6.40;;;11.20;99.90;;;11.41;52.89;102055.97;5052156;28;20061;-73
2023/04/20 03:19:24;;;;;;;8.00;7.00;;;11.20;99.90;;;11.32;53.51;102030.28;5085462;28;20060;-73
2023/04/20 03:21:52;;;;;;;15.43;7.30;;;11.20;99.90;;;11.35;53.68;102061.19;5052615;28;20453;-73
2023/04/20 03:24:21;;;;;;;8.43;7.47;;;11.20;99.90;;;11.39;53.94;102055.06;5052248;28;20279;-74
2023/04/20 03:26:49;;;;;;;9.40;6.72;;;11.10;99.90;;;11.37;54.06;102047.09;5051812;28;20139;-73
2023/04/20 03:29:21;;;;;;;12.10;7.25;;;11.10;99.90;;;11.42;54.17;102052.47;5051704;28;20505;-73
2023/04/20 03:31:50;;;;;;;10.07;7.93;;;11.10;99.90;;;11.35;54.41;102050.59;5051580;28;20049;-74
2023/04/20 03:34:19;;;;;;;10.23;6.88;;;11.10;99.90;;;11.32;54.63;102043.53;5052179;28;20098;-74
2023/04/20 03:36:48;;;;;;;9.65;7.07;;;11.10;99.90;;;11.38;54.61;102032.97;5051328;28;20061;-74
2023/04/20 03:39:17;;;;;;;10.07;6.85;;;11.20;99.90;;;11.29;54.97;102029.31;5052804;28;20041;-73
2023/04/20 03:41:45;;;;;;;9.55;6.82;;;11.10;99.90;;;11.31;55.33;102032.88;5051421;28;20122;-74
2023/04/20 03:44:14;;;;;;;9.43;7.30;;;11.00;99.90;;;11.28;55.24;102023.16;5051375;28;20045;-74
2023/04/20 03:46:42;;;;;;;8.75;6.90;;;11.00;99.90;;;11.35;55.41;102021.44;5051359;28;20379;-73
2023/04/20 03:49:11;;;;;;;8.07;6.45;;;11.10;99.90;;;11.43;55.69;102020.66;5084752;28;20052;-73
2023/04/20 03:51:40;;;;;;;9.37;6.80;;;11.10;99.90;;;11.42;55.39;102021.53;5052194;28;20075;-73
2023/04/20 03:54:10;;;;;;;9.23;6.75;;;11.20;99.90;;;11.44;55.99;102022.44;5056897;28;20043;-73
2023/04/20 03:56:39;;;;;;;10.57;7.32;;;11.20;99.90;;;11.46;55.92;102017.16;5055312;28;20048;-74
2023/04/20 03:59:07;;;;;;;6.85;6.15;;;11.20;99.90;;;11.48;56.08;102005.69;5055161;28;20048;-74
2023/04/20 04:01:37;;;;;;;7.88;6.40;;;11.30;99.90;;;11.50;56.45;102019.84;5055204;28;20052;-74
2023/04/20 04:04:06;;;;;;;11.75;7.40;;;11.20;99.90;;;11.58;56.46;102017.28;5071905;28;20048;-73
2023/04/20 04:06:35;;;;;;;8.40;6.35;;;11.30;99.90;;;11.51;56.82;102011.06;5055391;28;20139;-73
2023/04/20 04:09:04;;;;;;;8.98;6.63;;;11.30;99.90;;;11.38;57.18;102001.16;5054989;28;20386;-74
2023/04/20 04:11:33;;;;;;;7.78;6.93;;;11.20;99.90;;;11.44;57.12;102000.38;5055008;28;20072;-73
2023/04/20 04:14:03;;;;;;;8.02;6.00;;;11.20;99.90;;;11.50;57.19;101993.34;5054738;28;20076;-73
2023/04/20 04:16:32;;;;;;;11.40;6.70;;;11.30;99.90;;;11.52;57.31;102002.22;5055001;28;20144;-73
2023/04/20 04:19:01;;;;;;;7.72;6.20;;;11.20;99.90;;;11.54;57.60;101999.56;5054576;28;20059;-74
2023/04/20 04:21:30;;;;;;;9.73;5.90;;;11.30;99.90;;;11.58;57.33;102001.38;5054759;28;20064;-73
2023/04/20 04:24:03;;;;;;;11.15;6.28;;;11.30;99.90;;;11.60;57.21;101996.97;5054816;28;20045;-73
2023/04/20 04:26:55;;;;;;;8.20;6.03;;;11.30;99.90;;;11.54;57.43;102000.47;5054682;28;20045;-74
2023/04/20 04:29:24;;;;;;;8.95;6.15;;;11.30;99.90;;;11.53;57.50;101984.56;5054614;28;20049;-74
2023/04/20 04:31:54;;;;;;;8.80;5.78;;;11.30;99.90;;;11.61;57.34;101983.72;5054595;28;20049;-74
2023/04/20 04:34:22;;;;;;;7.43;5.80;;;11.40;99.90;;;11.46;57.14;101957.09;5054199;28;20049;-73
2023/04/20 04:36:53;;;;;;;6.80;5.90;;;11.40;99.90;;;11.70;56.94;101983.88;5054193;28;20106;-74
2023/04/20 04:39:30;;;;;;;8.55;5.53;;;11.40;99.90;;;11.80;56.95;101976.88;5054494;28;20494;-74
2023/04/20 04:42:09;;;;;;;10.13;5.88;;;11.60;99.90;;;11.62;56.63;101971.38;5054486;28;20045;-74
2023/04/20 04:44:42;;;;;;;7.15;5.70;;;11.50;99.90;;;11.58;56.90;101962.53;5054357;28;20049;-74
2023/04/20 04:47:16;;;;;;;6.22;5.07;;;11.40;99.90;;;11.65;56.98;101967.03;5054401;28;20064;-74
2023/04/20 04:49:45;;;;;;;7.80;5.55;;;11.50;99.90;;;11.64;56.90;101970.53;5054310;28;20598;-74
2023/04/20 04:52:14;;;;;;;6.93;5.20;;;11.40;99.90;;;11.65;57.18;101950.22;5054291;28;20041;-73
2023/04/20 04:54:42;;;;;;;7.13;5.28;;;11.50;99.90;;;11.55;57.16;101951.91;5055190;28;20106;-73
2023/04/20 04:57:11;;;;;;;9.45;5.30;;;11.30;99.90;;;11.64;57.41;101951.97;5055412;28;20036;-73
2023/04/20 04:59:40;;;;;;;8.85;5.57;;;11.40;99.90;;;11.61;57.67;101949.28;5055052;28;20506;-73
2023/04/20 05:02:08;;;;;;;8.90;5.45;;;11.40;99.90;;;11.76;57.38;101944.16;5055648;28;20382;-74
2023/04/20 05:04:37;;;;;;;8.60;5.25;;;11.50;99.90;;;11.82;56.95;101937.13;5053295;28;20147;-74
2023/04/20 05:07:06;;;;;;;6.38;4.90;;;11.60;99.90;;;11.85;57.47;101935.38;5053914;28;20057;-73
2023/04/20 05:09:34;;;;;;;7.18;4.97;;;11.60;99.90;;;11.80;57.33;101929.16;5054860;28;20490;-73
2023/04/20 05:12:02;;;;;;;7.93;5.50;;;11.60;99.90;;;11.83;57.54;101930.97;5055406;28;20041;-73
2023/04/20 05:14:33;;;;;;;7.22;5.00;;;11.60;99.90;;;11.85;57.64;101932.72;5055396;28;20098;-73
2023/04/20 05:17:02;;;;;;;7.95;5.30;;;11.60;99.90;;;11.85;57.64;101921.22;5055172;28;20044;-73
2023/04/20 05:19:30;;;;;;;6.15;5.10;;;11.60;99.90;;;11.88;57.69;101931.88;5055306;28;20055;-73
2023/04/20 05:21:58;;;;;;;8.90;5.75;;;11.70;99.90;;;11.90;57.52;101916.88;5054987;28;20041;-73
2023/04/20 05:24:27;;;;;;;8.93;5.30;;;11.70;99.90;;;11.79;58.11;101924.72;5054673;28;20069;-73
2023/04/20 05:26:56;;;;;;;5.43;4.75;;;11.60;99.90;;;11.72;58.44;101917.63;5054622;28;20490;-73
2023/04/20 05:29:24;;;;;;;8.00;4.82;;;11.60;99.90;;;11.63;59.14;101917.53;5054424;28;20514;-73
2023/04/20 05:31:54;;;;;;;5.70;4.45;;;11.40;99.90;;;11.59;59.15;101897.16;5054535;28;20051;-73
2023/04/20 05:34:22;;;;;;;8.27;5.00;;;11.40;99.90;;;11.77;59.55;101905.28;5054470;28;20033;-74
2023/04/20 05:36:53;;;;;;;8.38;4.53;;;11.50;99.90;;;11.82;59.35;101903.56;5054042;28;20302;-73
2023/04/20 05:39:22;;;;;;;8.75;5.18;;;11.60;99.90;;;11.82;59.72;101898.25;5054666;28;20429;-73
2023/04/20 05:41:50;;;;;;;5.85;4.97;;;11.60;99.90;;;11.94;59.83;101903.66;5054335;28;20048;-73
2023/04/20 05:44:18;;;;;;;6.07;5.03;;;11.70;99.90;;;11.89;60.25;101886.81;5054655;28;20101;-73
2023/04/20 05:46:47;;;;;;;8.38;5.60;;;11.70;99.90;;;11.92;60.82;101892.16;5054172;28;20037;-73
2023/04/20 05:49:17;;;;;;;11.13;5.43;;;11.70;99.90;;;11.95;60.98;101891.25;5053976;28;20413;-73
2023/04/20 05:51:46;;;;;;;12.40;6.03;;;11.70;99.90;;;11.85;61.18;101890.31;5054091;28;20072;-73
2023/04/20 05:54:14;;;;;;;9.65;5.30;;;11.60;99.90;;;11.94;61.25;101887.75;5054199;28;20041;-74
2023/04/20 05:56:42;;;;;;;8.27;5.45;;;11.70;99.90;;;11.81;61.83;101887.66;5054288;28;20371;-74
2023/04/20 05:59:11;;;;;;;12.23;5.30;;;11.60;99.90;;;11.94;61.80;101892.16;5054007;28;20056;-74
2023/04/20 06:01:39;;;;;;;8.55;5.55;;;11.70;99.90;;;11.78;62.02;101889.41;5054319;28;20123;-74
2023/04/20 06:04:08;;;;;;;8.52;5.80;;;11.60;99.90;;;11.76;62.16;101887.63;5054492;28;20124;-74
2023/04/20 06:06:38;;;;;;;8.07;5.20;;;11.60;99.90;;;11.80;62.22;101892.06;5054286;28;20132;-74
2023/04/20 06:09:06;;;;;;;8.70;6.20;;;11.60;99.90;;;11.78;61.97;101896.47;5053910;28;20037;-74
2023/04/20 06:11:35;;;;;;;11.02;5.78;;;11.60;99.90;;;11.81;61.73;101887.66;5053922;28;20044;-74
2023/04/20 06:14:03;;;;;;;10.50;5.75;;;11.60;99.90;;;11.63;61.90;101873.34;5053583;28;20045;-74
2023/04/20 06:16:31;;;;;;;9.25;5.72;;;11.60;99.90;;;11.75;62.15;101876.13;5052507;28;20065;-74
2023/04/20 06:19:00;;;;;;;10.95;5.97;;;11.50;99.90;;;11.84;62.05;101899.16;5053778;28;20061;-74
2023/04/20 06:21:28;;;;;;;7.60;5.53;;;11.60;99.90;;;11.84;61.91;101885.91;5052462;28;20450;-74
2023/04/20 06:23:58;;;;;;;10.82;5.55;;;11.60;99.90;;;11.89;61.98;101891.22;5053658;28;20034;-74
2023/04/20 06:26:26;;;;;;;8.02;5.60;;;11.60;99.90;;;11.87;61.87;101888.56;5053442;28;20071;-73
2023/04/20 06:28:54;;;;;;;8.20;5.43;;;11.60;99.90;;;11.94;61.20;101892.16;5053222;28;20049;-71
2023/04/20 06:31:23;;;;;;;9.30;5.60;;;11.70;99.90;;;11.91;61.12;101882.41;5053097;28;20044;-77
2023/04/20 06:33:51;;;;;;;10.02;6.13;;;11.70;99.90;;;11.98;60.92;101886.00;5053851;28;20040;-75
2023/04/20 06:36:20;;;;;;;13.85;5.90;;;11.70;99.90;;;11.99;60.98;101883.34;5052753;28;20053;-74
2023/04/20 06:38:48;;;;;;;12.63;5.80;;;11.70;99.90;;;11.97;61.39;101885.09;5053260;28;20561;-76
2023/04/20 06:41:18;;;;;;;9.63;5.97;;;11.70;99.90;;;11.95;61.63;101880.66;5053632;28;20136;-72
2023/04/20 06:43:46;;;;;;;7.47;5.75;;;11.70;99.90;;;11.85;61.92;101852.31;5053018;28;20066;-71
2023/04/20 06:46:14;;;;;;;10.50;6.75;;;11.70;99.90;;;12.06;61.75;101877.19;5052853;28;20052;-72
2023/04/20 06:48:43;;;;;;;9.23;6.20;;;11.80;99.90;;;12.01;61.96;101875.41;5053254;28;20132;-71
2023/04/20 06:51:13;;;;;;;9.02;5.28;;;11.80;99.90;;;11.83;61.83;101883.25;5052820;28;20052;-71
2023/04/20 06:53:46;;;;;;;14.65;6.13;;;11.70;99.90;;;11.85;61.88;101857.59;5053123;28;20040;-70
2023/04/20 06:56:20;;;;;;;18.17;5.78;;;11.60;99.90;;;11.83;61.15;101870.00;5053235;28;20083;-70
2023/04/20 06:58:51;;;;;;;8.45;5.75;;;11.60;99.90;;;11.65;61.33;101860.13;5053094;28;20123;-71
2023/04/20 07:01:24;;;;;;;8.65;5.93;;;11.50;99.90;;;11.60;61.32;101854.78;5052996;28;20049;-72
2023/04/20 07:03:54;;;;;;;12.32;6.68;;;11.40;99.90;;;11.59;61.12;101866.22;5052965;28;20045;-73
2023/04/20 07:06:27;;;;;;;10.77;6.40;;;11.40;99.90;;;11.52;61.50;101863.53;5052789;28;20098;-71
2023/04/20 07:08:55;;;;;;;15.13;6.80;;;11.30;99.90;;;11.53;62.58;101855.63;5052766;28;20041;-73
2023/04/20 07:11:25;;;;;;;13.55;6.07;;;11.30;99.90;;;11.53;62.91;101855.63;5052552;28;20049;-69
2023/04/20 07:13:54;;;;;;;8.18;6.43;;;11.30;99.90;;;11.54;63.38;101860.03;5053270;28;20398;-73
2023/04/20 07:16:22;;;;;;;10.27;7.00;;;11.30;99.90;;;11.32;63.83;101836.91;5052533;28;20033;-71
2023/04/20 07:18:50;;;;;;;12.57;6.95;;;11.20;99.90;;;11.28;64.27;101845.72;5052630;28;20119;-73
2023/04/20 07:21:18;;;;;;;9.55;6.72;;;11.10;99.90;;;11.25;64.23;101843.00;5052523;28;20037;-71
2023/04/20 07:23:48;;;;;;;9.25;6.43;;;11.10;99.90;;;11.24;64.45;101864.19;5053003;28;20047;-71
2023/04/20 07:26:16;;;;;;;15.23;6.68;;;11.10;99.90;;;11.15;64.33;101849.09;5052185;28;20150;-70
2023/04/20 07:28:46;;;;;;;9.95;6.53;;;10.90;99.90;;;11.06;64.47;101849.03;5052756;28;20398;-71
2023/04/20 07:31:14;;;;;;;9.07;6.60;;;10.90;99.90;;;10.99;64.19;101865.72;5052391;28;20426;-71
2023/04/20 07:33:43;;;;;;;11.68;6.65;;;10.80;99.90;;;10.97;64.46;101861.28;5052684;28;20410;-71
2023/04/20 07:36:11;;;;;;;7.13;6.43;;;10.80;99.90;;;11.09;64.12;101864.91;5052549;28;20048;-71
2023/04/20 07:38:39;;;;;;;7.15;6.45;;;10.80;99.90;;;11.10;63.59;101858.78;5053074;28;20040;-72
2023/04/20 07:41:09;;;;;;;9.95;7.03;;;10.80;99.90;;;11.08;63.83;101852.56;5052506;28;20450;-72
2023/04/20 07:43:38;;;;;;;8.15;6.28;;;10.90;99.90;;;11.11;63.35;101865.81;5052376;28;20087;-71
2023/04/20 07:46:08;;;;;;;10.20;6.50;;;10.90;99.90;;;10.97;63.16;101867.47;5052345;28;20033;-72
2023/04/20 07:48:37;;;;;;;13.45;6.82;;;10.80;99.90;;;10.95;63.21;101863.03;5052279;28;20040;-71
2023/04/20 07:51:05;;;;;;;9.90;6.50;;;10.70;99.90;;;10.98;63.34;101860.41;5050702;28;20083;-71
2023/04/20 07:53:34;;;;;;;8.43;6.70;;;10.80;99.90;;;10.94;63.24;101869.22;5052157;28;20198;-71
2023/04/20 07:56:03;;;;;;;9.43;6.60;;;10.70;99.90;;;10.82;62.96;101870.84;5052798;28;20442;-72
2023/04/20 07:58:31;;;;;;;14.13;6.80;;;10.60;99.90;;;10.71;63.21;101864.56;5052773;28;20055;-73
2023/04/20 08:00:59;;;;;;;10.18;6.35;;;10.50;99.90;;;10.78;64.39;101862.88;5052648;28;20489;-72
2023/04/20 08:03:29;;;;;;;10.98;6.70;;;10.60;99.90;;;10.72;65.74;101866.31;5052191;28;20043;-75
2023/04/20 08:05:57;;;;;;;8.32;6.88;;;10.50;99.90;;;10.74;65.97;101864.56;5052316;28;20049;-73
2023/04/20 08:08:26;;;;;;;10.10;6.70;;;10.50;99.90;;;10.65;67.09;101872.41;5052373;28;20075;-73
2023/04/20 08:10:57;;;;;;;10.68;7.30;;;10.40;99.90;;;10.55;68.06;101861.72;5052143;28;20094;-71
2023/04/20 08:13:27;;;;;;;10.70;6.65;;;10.40;99.90;;;10.28;68.23;101858.75;5052672;28;20048;-71
2023/04/20 08:15:55;;;;;;;8.80;6.70;;;10.20;99.90;;;10.19;69.08;101859.50;5052035;28;20457;-72
2023/04/20 08:18:23;;;;;;;13.50;7.35;;;10.00;99.90;;;10.20;69.78;101863.06;5052126;28;20051;-72
2023/04/20 08:20:53;;;;;;;9.13;7.05;;;10.00;99.90;;;10.19;70.50;101855.97;5052272;28;20502;-73
2023/04/20 08:23:26;;;;;;;8.82;6.38;;;10.00;99.90;;;10.28;70.60;101858.75;5052047;28;20068;-74
2023/04/20 08:25:55;;;;;;;9.02;7.32;;;10.00;99.90;;;10.25;71.22;101858.69;5052031;28;20041;-73
2023/04/20 08:28:23;;;;;;;9.30;7.22;;;10.00;99.90;;;10.20;71.51;101839.25;5052474;28;20126;-72
2023/04/20 08:30:56;;;;;;;10.35;7.10;;;10.00;99.90;;;10.17;72.49;101841.84;5051860;28;20048;-75
2023/04/20 08:33:25;;;;;;;8.45;6.93;;;10.00;99.90;;;10.13;72.66;101845.31;5050921;28;20433;-77
2023/04/20 08:35:54;;;;;;;9.82;7.90;;;9.90;99.90;;;10.11;73.66;101855.88;5051977;28;20132;-75
2023/04/20 08:38:24;;;;;;;14.40;7.80;;;9.90;99.90;;;10.08;74.20;101858.47;5052308;28;20048;-76
2023/04/20 08:41:01;;;;;;;11.20;8.10;;;9.90;99.90;;;9.78;74.92;101847.44;5055592;28;20284;-74
2023/04/20 08:43:30;;;;;;;10.95;8.38;;;9.70;99.90;;;9.76;75.44;101834.22;5055752;28;20041;-75
2023/04/20 08:46:01;;;;;;;12.93;8.27;;;9.60;99.90;;;9.87;76.53;101848.47;5055771;28;20127;-74
2023/04/20 08:48:36;;;;;;;11.82;8.38;;;9.60;99.90;;;9.86;76.73;101845.78;5055703;28;20055;-74
2023/04/20 08:51:06;;;;;;;10.25;7.60;;;9.60;99.90;;;9.99;77.15;101839.81;5055359;28;20084;-73
2023/04/20 08:53:34;;;;;;;13.35;8.35;;;9.70;99.90;;;10.01;76.88;101843.34;5055696;28;20048;-68
2023/04/20 08:56:04;;;;;;;12.82;7.60;;;9.80;99.90;;;10.04;76.93;101846.06;5055198;28;20487;-69
2023/04/20 08:58:33;;;;;;;16.13;8.32;;;9.80;99.90;;;10.10;77.43;101843.53;5055192;28;20499;-69
2023/04/20 09:01:01;;;;;;;10.90;8.32;;;9.90;99.90;;;10.06;78.03;101840.78;5070810;28;20049;-77
2023/04/20 09:03:34;;;;;;;10.93;8.50;;;9.80;99.90;;;10.10;78.58;101832.97;5055352;28;20041;-71
2023/04/20 09:06:05;;;;;;;13.82;8.20;;;9.90;99.90;;;10.07;78.31;101830.22;5055654;28;20045;-74
2023/04/20 09:08:39;;;;;;;12.18;8.30;;;9.90;99.90;;;9.91;78.99;101808.00;5055329;28;20045;-71
2023/04/20 09:11:20;;;;;;;9.85;8.07;;;9.80;99.90;;;10.02;78.67;101816.06;5055221;28;20044;-71
2023/04/20 09:13:59;;;;;;;12.57;8.23;;;9.90;99.90;;;10.05;78.92;101816.09;5055287;28;20072;-73
2023/04/20 09:16:28;;;;;;;11.77;8.13;;;9.90;99.90;;;10.02;78.98;101831.94;5054929;28;20553;-74
2023/04/20 09:18:57;;;;;;;13.32;8.73;;;9.80;99.90;;;10.05;78.96;101821.38;5055368;28;20052;-74
2023/04/20 09:21:28;;;;;;;11.65;8.10;;;9.90;99.90;;;10.09;79.40;101819.66;5055107;28;20076;-73
2023/04/20 09:23:58;;;;;;;11.82;7.78;;;9.90;99.90;;;10.08;79.37;101810.88;5055042;28;20068;-76
2023/04/20 09:26:27;;;;;;;10.23;8.65;;;9.90;99.90;;;10.18;79.99;101815.41;5055292;28;20068;-77
2023/04/20 09:28:55;;;;;;;12.18;8.38;;;9.90;99.90;;;10.16;79.77;101818.94;5054434;28;20037;-72
2023/04/20 09:31:24;;;;;;;11.38;8.50;;;10.00;99.90;;;10.19;80.45;101809.28;5054994;28;20068;-78
2023/04/20 09:34:01;;;;;;;12.38;8.75;;;10.00;99.90;;;10.24;79.91;101823.44;5054652;28;20773;-76
2023/04/20 09:36:38;;;;;;;12.35;8.80;;;10.00;99.90;;;10.30;80.05;101817.34;5054716;28;20053;-71
2023/04/20 09:39:09;;;;;;;10.13;8.77;;;10.10;99.90;;;10.32;79.93;101816.47;5053402;28;20111;-71
2023/04/20 09:41:39;;;;;;;14.82;9.10;;;10.10;99.90;;;10.24;79.96;101797.00;5054406;28;20091;-72
2023/04/20 09:44:09;;;;;;;15.57;9.52;;;10.10;99.90;;;10.28;80.15;101804.09;5054385;28;20041;-71
2023/04/20 09:46:41;;;;;;;11.13;9.43;;;10.10;99.90;;;10.34;80.25;101800.63;5054349;28;20127;-71
2023/04/20 09:49:12;;;;;;;14.30;9.38;;;10.10;99.90;;;10.37;80.17;101800.69;5054290;28;20048;-67
2023/04/20 09:51:44;;;;;;;10.40;9.05;;;10.10;99.90;;;10.46;79.71;101792.84;5054434;28;20049;-69
2023/04/20 09:54:14;;;;;;;12.82;8.70;;;10.20;99.90;;;10.39;79.80;101776.03;5054150;28;20043;-69
2023/04/20 09:56:44;;;;;;;8.95;7.95;;;10.30;99.90;;;10.40;79.29;101798.06;5053073;28;20049;-71
2023/04/20 09:59:13;;;;;;;12.80;8.75;;;10.20;99.90;;;10.22;79.26;101779.34;5054444;28;20037;-70
2023/04/20 10:01:41;;;;;;;11.10;8.68;;;10.10;99.90;;;10.27;79.32;101756.47;5053952;28;20044;-73
2023/04/20 10:04:10;;;;;;;11.10;8.02;;;10.10;99.90;;;10.29;78.67;101786.47;5054103;28;20067;-70
2023/04/20 10:06:40;;;;;;;12.00;8.40;;;10.10;99.90;;;10.29;78.86;101781.19;5054167;28;20045;-70
2023/04/20 10:09:23;;;;;;;9.43;8.30;;;10.10;99.90;;;10.25;79.40;101756.47;5053768;28;20052;-71
2023/04/20 10:11:52;;;;;;;11.48;8.77;;;10.00;99.90;;;10.24;78.90;101761.75;5053784;28;20474;-71
2023/04/20 10:14:25;;;;;;;10.10;8.23;;;10.00;99.90;;;10.33;79.04;101759.19;5054040;28;20045;-71
2023/04/20 10:17:02;;;;;;;9.98;8.43;;;10.10;99.90;;;10.35;79.17;101774.22;5053687;28;20044;-71
2023/04/20 10:19:38;;;;;;;10.30;8.40;;;10.20;99.90;;;10.34;78.89;101761.84;5053622;28;20444;-71
2023/04/20 10:22:08;;;;;;;9.40;8.32;;;10.10;99.90;;;10.50;78.89;101768.19;5053870;28;20076;-71